createdAt,value
2022-10-04T00:01:45.766Z,76.40
2022-10-04T00:06:58.371Z,76.70
2022-10-04T00:12:04.163Z,76.70
2022-10-04T00:17:24.812Z,76.30
2022-10-04T00:22:30.372Z,76.60
2022-10-04T00:27:39.086Z,76.40
2022-10-04T00:32:42.516Z,76.60
2022-10-04T00:38:01.411Z,76.40
2022-10-04T00:43:24.552Z,75.80
2022-10-04T00:48:47.207Z,75.60
2022-10-04T00:54:07.211Z,75.60
2022-10-04T00:59:27.920Z,75.50
2022-10-04T01:04:41.778Z,75.30
2022-10-04T01:10:00.241Z,75.10
2022-10-04T01:15:14.709Z,75.20
2022-10-04T01:20:37.385Z,75.00
2022-10-04T01:25:49.001Z,75.00
2022-10-04T01:30:55.401Z,75.10
2022-10-04T01:35:58.979Z,74.80
2022-10-04T01:41:06.256Z,74.70
2022-10-04T01:46:23.576Z,74.70
2022-10-04T01:51:31.156Z,74.80
2022-10-04T01:56:44.178Z,74.60
2022-10-04T02:01:50.456Z,74.50
2022-10-04T02:06:57.119Z,74.40
2022-10-04T02:12:00.983Z,74.40
2022-10-04T02:17:10.703Z,74.80
2022-10-04T02:22:14.463Z,74.40
2022-10-04T02:27:18.107Z,74.30
2022-10-04T02:32:40.543Z,74.20
2022-10-04T02:37:45.288Z,74.40
2022-10-04T02:42:48.707Z,74.30
2022-10-04T02:47:58.647Z,74.20
2022-10-04T02:53:11.815Z,74.50
2022-10-04T02:58:18.613Z,74.40
2022-10-04T03:03:34.782Z,74.30
2022-10-04T03:08:46.835Z,74.30
2022-10-04T03:14:09.187Z,73.70
2022-10-04T03:19:16.248Z,74.10
2022-10-04T03:24:25.989Z,74.00
2022-10-04T03:29:35.612Z,74.10
2022-10-04T03:34:42.100Z,74.20
2022-10-04T03:40:08.848Z,74.40
2022-10-04T03:45:16.823Z,73.70
2022-10-04T03:50:26.051Z,74.10
2022-10-04T03:55:37.340Z,74.00
2022-10-04T04:00:52.452Z,74.40
2022-10-04T04:06:03.710Z,73.90
2022-10-04T04:11:29.548Z,73.90
2022-10-04T04:16:40.100Z,74.10
2022-10-04T04:21:44.857Z,74.00
2022-10-04T04:26:55.430Z,73.90
2022-10-04T04:32:09.674Z,73.90
2022-10-04T04:37:13.337Z,74.60
2022-10-04T04:42:23.932Z,74.00
2022-10-04T04:47:36.544Z,73.90
2022-10-04T04:52:41.599Z,74.00
2022-10-04T04:57:50.034Z,74.20
2022-10-04T05:02:58.797Z,74.00
2022-10-04T05:08:25.525Z,73.80
2022-10-04T05:13:40.270Z,73.90
2022-10-04T05:18:46.034Z,73.90
2022-10-04T05:23:50.107Z,73.90
2022-10-04T05:29:00.532Z,73.90
2022-10-04T05:34:27.439Z,72.70
2022-10-04T05:39:41.304Z,72.50
2022-10-04T05:44:58.543Z,71.60
2022-10-04T05:50:03.802Z,71.60
2022-10-04T05:55:29.034Z,71.50
2022-10-04T06:00:47.264Z,71.50
2022-10-04T06:05:55.629Z,71.50
2022-10-04T06:11:20.909Z,71.40
2022-10-04T06:16:45.046Z,71.40
2022-10-04T06:22:01.313Z,71.50
2022-10-04T06:27:11.362Z,71.30
2022-10-04T06:32:24.386Z,71.50
2022-10-04T06:37:49.431Z,71.50
2022-10-04T06:43:34.496Z,71.50
2022-10-04T06:48:47.126Z,71.30
2022-10-04T06:54:20.635Z,71.50
2022-10-04T06:59:53.219Z,71.50
2022-10-04T07:05:08.507Z,71.30
2022-10-04T07:10:20.962Z,71.60
2022-10-04T07:15:30.863Z,72.50
2022-10-04T07:20:37.039Z,72.00
2022-10-04T07:25:54.206Z,72.10
2022-10-04T07:31:15.583Z,72.00
2022-10-04T07:36:28.397Z,72.40
2022-10-04T07:41:40.016Z,71.90
2022-10-04T07:46:43.595Z,72.10
2022-10-04T07:51:53.066Z,72.00
2022-10-04T07:57:02.027Z,71.90
2022-10-04T08:02:28.934Z,72.00
2022-10-04T08:08:03.889Z,71.80
2022-10-04T08:13:16.313Z,71.70
2022-10-04T08:18:56.058Z,72.20
2022-10-04T08:24:06.350Z,73.30
2022-10-04T08:29:37.699Z,73.90
2022-10-04T08:35:02.260Z,73.30
2022-10-04T08:40:12.863Z,73.20
2022-10-04T08:45:32.775Z,74.10
2022-10-04T08:51:06.683Z,74.00
2022-10-04T08:56:25.146Z,74.20
2022-10-04T09:01:46.228Z,73.40
2022-10-04T09:06:55.251Z,73.00
2022-10-04T09:12:20.426Z,72.90
2022-10-04T09:18:01.890Z,73.00
2022-10-04T09:23:23.853Z,73.30
2022-10-04T09:28:39.484Z,72.40
2022-10-04T09:33:55.760Z,72.30
2022-10-04T09:39:29.057Z,72.10
2022-10-04T09:44:40.566Z,72.90
2022-10-04T09:50:19.182Z,74.40
2022-10-04T09:55:49.824Z,73.40
2022-10-04T10:01:51.306Z,73.90
2022-10-04T10:07:11.056Z,73.30
2022-10-04T10:12:45.378Z,72.80
2022-10-04T10:18:28.298Z,73.10
2022-10-04T10:24:00.165Z,72.70
2022-10-04T10:29:41.559Z,72.50
2022-10-04T10:35:04.411Z,72.40
2022-10-04T10:40:33.640Z,72.30
2022-10-04T10:45:47.576Z,72.10
2022-10-04T10:51:21.478Z,72.00
2022-10-04T10:56:51.926Z,71.40
2022-10-04T11:02:05.980Z,71.50
2022-10-04T11:07:20.376Z,71.50
2022-10-04T11:12:35.950Z,71.20
2022-10-04T11:18:07.409Z,70.90
2022-10-04T11:23:49.414Z,70.70
2022-10-04T11:29:26.802Z,70.70
2022-10-04T11:35:05.528Z,70.40
2022-10-04T11:40:24.586Z,70.10
2022-10-04T11:45:44.084Z,70.30
2022-10-04T11:51:13.023Z,70.20
2022-10-04T11:56:35.565Z,70.10
2022-10-04T12:01:50.417Z,71.50
2022-10-04T12:07:24.866Z,71.20
2022-10-04T12:12:40.543Z,71.40
2022-10-04T12:18:22.134Z,70.90
2022-10-04T12:23:28.290Z,70.60
2022-10-04T12:29:11.800Z,71.00
2022-10-04T12:34:41.196Z,70.90
2022-10-04T12:39:48.478Z,70.60
2022-10-04T12:45:04.058Z,70.90
2022-10-04T12:50:22.826Z,70.60
2022-10-04T12:56:11.484Z,70.00
2022-10-04T13:01:41.355Z,70.30
2022-10-04T13:06:57.507Z,69.90
2022-10-04T13:12:21.327Z,69.80
2022-10-04T13:17:47.019Z,69.60
2022-10-04T13:22:58.629Z,69.40
2022-10-04T13:28:17.197Z,69.30
2022-10-04T13:34:17.246Z,69.20
2022-10-04T13:39:43.433Z,69.10
2022-10-04T13:44:50.619Z,69.00
2022-10-04T13:50:26.620Z,69.00
2022-10-04T13:56:07.984Z,69.00
2022-10-04T14:01:20.379Z,68.80
2022-10-04T14:06:27.204Z,68.70
2022-10-04T14:11:45.815Z,68.60
2022-10-04T14:17:13.850Z,68.50
2022-10-04T14:22:29.473Z,68.70
2022-10-04T14:28:10.919Z,68.50
2022-10-04T14:33:40.310Z,68.70
2022-10-04T14:39:01.584Z,68.70
2022-10-04T14:44:28.214Z,68.80
2022-10-04T14:50:01.222Z,68.90
2022-10-04T14:55:17.111Z,68.90
2022-10-04T15:00:24.110Z,69.00
2022-10-04T15:06:04.978Z,69.30
2022-10-04T15:11:18.055Z,69.30
2022-10-04T15:16:53.287Z,69.80
2022-10-04T15:22:33.628Z,71.30
2022-10-04T15:27:47.689Z,72.10
2022-10-04T15:33:28.980Z,71.80
2022-10-04T15:38:49.552Z,71.70
2022-10-04T15:44:12.134Z,71.90
2022-10-04T15:49:50.344Z,71.90
2022-10-04T15:55:28.076Z,72.70
2022-10-04T16:00:57.487Z,72.40
2022-10-04T16:06:17.777Z,72.80
2022-10-04T16:11:30.023Z,73.00
2022-10-04T16:16:44.215Z,72.40
2022-10-04T16:22:09.363Z,72.80
2022-10-04T16:27:39.644Z,71.80
2022-10-04T16:33:29.209Z,71.80
2022-10-04T16:39:14.302Z,71.50
2022-10-04T16:45:06.808Z,71.60
2022-10-04T16:50:50.829Z,71.60
2022-10-04T16:56:02.845Z,72.00
2022-10-04T17:01:26.150Z,71.90
2022-10-04T17:06:49.619Z,71.70
2022-10-04T17:12:08.053Z,72.00
2022-10-04T17:17:37.976Z,72.50
2022-10-04T17:22:53.048Z,72.30
2022-10-04T17:28:17.298Z,72.50
2022-10-04T17:33:36.826Z,71.60
2022-10-04T17:38:47.825Z,71.70
2022-10-04T17:44:11.704Z,71.60
2022-10-04T17:50:06.698Z,72.50
2022-10-04T17:55:19.137Z,70.90
2022-10-04T18:00:31.487Z,71.20
2022-10-04T18:05:47.983Z,70.30
2022-10-04T18:11:04.887Z,71.40
2022-10-04T18:16:24.806Z,71.30
2022-10-04T18:21:33.000Z,71.50
2022-10-04T18:27:00.985Z,71.40
2022-10-04T18:32:40.084Z,71.60
2022-10-04T18:37:50.512Z,71.70
2022-10-04T18:43:08.547Z,72.30
2022-10-04T18:48:45.206Z,72.50
2022-10-04T18:54:39.329Z,72.50
2022-10-04T19:00:47.395Z,72.30
2022-10-04T19:06:04.399Z,72.70
2022-10-04T19:11:17.697Z,72.90
2022-10-04T19:17:07.128Z,72.30
2022-10-04T19:22:47.331Z,72.70
2022-10-04T19:28:17.948Z,72.80
2022-10-04T19:33:45.204Z,73.80
2022-10-04T19:39:12.717Z,73.40
2022-10-04T19:44:49.327Z,73.00
2022-10-04T19:50:21.391Z,73.50
2022-10-04T19:56:04.424Z,74.60
2022-10-04T20:01:17.594Z,73.40
2022-10-04T20:06:27.937Z,73.60
2022-10-04T20:11:41.236Z,73.70
2022-10-04T20:16:55.312Z,73.40
2022-10-04T20:22:37.200Z,73.70
2022-10-04T20:27:48.538Z,73.60
2022-10-04T20:32:58.322Z,73.80
2022-10-04T20:38:31.130Z,74.10
2022-10-04T20:44:02.809Z,74.40
2022-10-04T20:49:17.695Z,74.50
2022-10-04T20:54:32.487Z,74.30
2022-10-04T20:59:41.694Z,74.20
2022-10-04T21:04:47.755Z,74.30
2022-10-04T21:09:54.280Z,74.30
2022-10-04T21:15:27.229Z,77.30
2022-10-04T21:20:50.476Z,77.20
2022-10-04T21:26:31.781Z,76.60
2022-10-04T21:31:35.469Z,76.80
2022-10-04T21:36:42.812Z,76.30
2022-10-04T21:41:54.884Z,76.50
2022-10-04T21:47:00.991Z,76.30
2022-10-04T21:52:06.068Z,76.30
2022-10-04T21:57:12.251Z,76.40
2022-10-04T22:02:15.943Z,76.00
2022-10-04T22:07:21.946Z,76.20
2022-10-04T22:12:30.373Z,76.20
2022-10-04T22:17:39.741Z,76.80
2022-10-04T22:22:43.972Z,76.80
2022-10-04T22:27:48.255Z,76.20
2022-10-04T22:32:55.487Z,76.80
2022-10-04T22:38:03.023Z,76.30
2022-10-04T22:43:13.436Z,77.00
2022-10-04T22:48:20.142Z,77.00
2022-10-04T22:53:28.628Z,76.70
2022-10-04T22:58:32.355Z,77.20
2022-10-04T23:03:36.628Z,77.30
2022-10-04T23:08:43.797Z,77.70
2022-10-04T23:13:47.214Z,77.30
2022-10-04T23:19:03.011Z,77.20
2022-10-04T23:24:21.461Z,77.20
2022-10-04T23:29:35.006Z,77.20
2022-10-04T23:34:40.776Z,77.10
2022-10-04T23:39:45.137Z,77.10
2022-10-04T23:44:51.012Z,77.10
2022-10-04T23:49:54.533Z,77.20
2022-10-04T23:54:59.591Z,76.80
